Time;durP1;ratioP1;P1;durP2;ratioP2;P2;SDS_P1;SDS_P2;PMS_P1;PMS_P2;Temp;Humidity;BMP_temperature;BMP_pressure;BME280_temperature;BME280_humidity;BME280_pressure;Samples;Min_cycle;Max_cycle;Signal;HPM_P1;HPM_P2
2023/11/20 00:00:14;;;;;;;35.55;5.75;;;;;;;;;;5049947;28;21751;-61
2023/11/20 00:02:43;;;;;;;24.50;5.10;;;;;;;;;;5047712;28;20117;-61
2023/11/20 00:05:09;;;;;;;30.65;5.85;;;;;;;;;;5060662;28;20056;-61
2023/11/20 00:07:36;;;;;;;30.15;5.60;;;;;;;;;;5058164;28;20047;-61
2023/11/20 00:10:02;;;;;;;27.00;6.88;;;;;;;;;;5063819;28;20045;-61
2023/11/20 00:12:28;;;;;;;27.88;4.88;;;;;;;;;;5061922;28;20144;-61
2023/11/20 00:14:55;;;;;;;26.55;3.97;;;;;;;;;;5061736;28;20145;-60
2023/11/20 00:17:21;;;;;;;21.67;4.00;;;;;;;;;;5056395;28;20106;-60
2023/11/20 00:19:48;;;;;;;20.17;4.03;;;;;;;;;;5031643;28;20067;-61
2023/11/20 00:22:14;;;;;;;17.73;3.80;;;;;;;;;;5045226;28;20496;-60
2023/11/20 00:24:40;;;;;;;19.83;3.20;;;;;;;;;;5043780;28;20440;-61
2023/11/20 00:27:07;;;;;;;10.52;2.60;;;;;;;;;;5054090;28;20554;-61
2023/11/20 00:29:33;;;;;;;13.52;2.30;;;;;;;;;;5053700;28;20111;-61
2023/11/20 00:31:59;;;;;;;9.43;2.33;;;;;;;;;;5046161;28;20048;-60
2023/11/20 00:34:25;;;;;;;7.50;1.60;;;;;;;;;;5054034;28;20120;-61
2023/11/20 00:36:51;;;;;;;9.55;1.98;;;;;;;;;;5054604;28;20407;-60
2023/11/20 00:39:19;;;;;;;10.43;2.03;;;;;;;;;;5052418;28;20408;-61
2023/11/20 00:41:45;;;;;;;6.55;1.73;;;;;;;;;;5057196;28;20478;-60
2023/11/20 00:44:14;;;;;;;6.50;1.50;;;;;;;;;;5033011;28;20112;-60
2023/11/20 00:46:41;;;;;;;6.75;1.50;;;;;;;;;;5071384;28;20064;-60
2023/11/20 00:49:07;;;;;;;6.43;1.58;;;;;;;;;;5054360;28;20459;-61
2023/11/20 00:51:33;;;;;;;8.15;1.55;;;;;;;;;;5053216;28;20090;-60
2023/11/20 00:54:00;;;;;;;4.25;1.42;;;;;;;;;;5051618;28;20040;-60
2023/11/20 00:56:28;;;;;;;8.50;1.48;;;;;;;;;;5059754;28;20471;-60
2023/11/20 00:58:54;;;;;;;4.18;1.25;;;;;;;;;;5058656;28;20060;-60
2023/11/20 01:01:20;;;;;;;4.60;1.70;;;;;;;;;;5047020;28;20505;-60
2023/11/20 01:03:46;;;;;;;7.68;1.70;;;;;;;;;;5051971;28;20033;-60
2023/11/20 01:06:13;;;;;;;4.65;1.27;;;;;;;;;;5058129;28;20089;-61
2023/11/20 01:08:39;;;;;;;10.70;2.13;;;;;;;;;;5058496;28;20520;-60
2023/11/20 01:11:09;;;;;;;8.55;2.05;;;;;;;;;;5061093;28;20037;-61
2023/11/20 01:13:35;;;;;;;12.20;2.78;;;;;;;;;;5056122;28;20048;-61
2023/11/20 01:16:02;;;;;;;15.45;3.53;;;;;;;;;;5057792;28;20068;-61
2023/11/20 01:18:28;;;;;;;11.15;3.00;;;;;;;;;;5060680;28;20052;-61
2023/11/20 01:20:54;;;;;;;11.50;2.67;;;;;;;;;;5050107;28;20044;-61
2023/11/20 01:23:20;;;;;;;21.60;3.35;;;;;;;;;;5048082;28;20052;-60
2023/11/20 01:25:47;;;;;;;19.13;3.10;;;;;;;;;;5058801;28;20152;-60
2023/11/20 01:28:13;;;;;;;14.13;2.88;;;;;;;;;;5052766;28;20056;-60
2023/11/20 01:30:39;;;;;;;9.77;3.22;;;;;;;;;;5026482;28;20515;-61
2023/11/20 01:33:05;;;;;;;8.88;2.40;;;;;;;;;;5049371;28;20044;-60
2023/11/20 01:35:31;;;;;;;8.00;2.00;;;;;;;;;;5050652;28;20477;-60
2023/11/20 01:37:57;;;;;;;8.60;2.25;;;;;;;;;;5052548;28;20412;-60
2023/11/20 01:40:24;;;;;;;5.05;1.60;;;;;;;;;;5055034;28;20033;-60
2023/11/20 01:42:50;;;;;;;8.20;1.90;;;;;;;;;;5057996;28;20068;-60
2023/11/20 01:45:16;;;;;;;8.32;1.83;;;;;;;;;;5058237;28;20069;-60
2023/11/20 01:47:43;;;;;;;6.38;1.52;;;;;;;;;;5053892;28;20472;-61
2023/11/20 01:50:10;;;;;;;5.75;1.70;;;;;;;;;;5050344;28;20112;-61
2023/11/20 01:52:39;;;;;;;12.30;2.33;;;;;;;;;;5022452;28;20045;-61
2023/11/20 01:55:05;;;;;;;8.02;2.72;;;;;;;;;;5050359;28;20183;-61
2023/11/20 01:57:31;;;;;;;11.23;3.65;;;;;;;;;;5051027;28;20052;-61
2023/11/20 01:59:57;;;;;;;19.63;4.70;;;;;;;;;;5053387;28;20051;-61
2023/11/20 02:02:24;;;;;;;23.17;4.47;;;;;;;;;;5059183;28;20507;-61
2023/11/20 02:04:51;;;;;;;20.13;5.32;;;;;;;;;;5061701;28;20502;-61
2023/11/20 02:07:18;;;;;;;23.30;5.55;;;;;;;;;;5051785;28;20444;-61
2023/11/20 02:09:45;;;;;;;26.77;5.45;;;;;;;;;;5050697;28;20045;-61
2023/11/20 02:12:12;;;;;;;30.88;5.82;;;;;;;;;;5060665;28;20243;-61
2023/11/20 02:14:38;;;;;;;25.70;5.50;;;;;;;;;;5061409;28;20106;-61
2023/11/20 02:17:04;;;;;;;33.72;6.53;;;;;;;;;;5045634;28;20055;-61
2023/11/20 02:19:30;;;;;;;36.30;5.82;;;;;;;;;;5049471;28;20496;-60
2023/11/20 02:21:57;;;;;;;33.78;6.50;;;;;;;;;;5049074;28;20384;-60
2023/11/20 02:24:25;;;;;;;34.25;7.47;;;;;;;;;;5038897;28;20051;-61
2023/11/20 02:27:22;;;;;;;45.05;7.07;;;;;;;;;;5038053;28;20071;-61
2023/11/20 02:29:52;;;;;;;57.70;7.90;;;;;;;;;;5037014;28;20053;-60
2023/11/20 02:32:19;;;;;;;27.25;6.88;;;;;;;;;;5046593;28;20374;-60
2023/11/20 02:34:45;;;;;;;29.23;7.10;;;;;;;;;;5052071;28;20083;-61
2023/11/20 02:37:11;;;;;;;27.42;6.45;;;;;;;;;;5048177;28;20048;-61
2023/11/20 02:39:37;;;;;;;32.00;6.22;;;;;;;;;;5054352;28;20049;-61
2023/11/20 02:42:06;;;;;;;22.40;5.95;;;;;;;;;;5039450;28;20048;-61
2023/11/20 02:44:32;;;;;;;32.75;5.78;;;;;;;;;;5045685;28;20095;-61
2023/11/20 02:46:59;;;;;;;17.27;4.90;;;;;;;;;;5057503;28;20037;-61
2023/11/20 02:49:25;;;;;;;28.08;6.53;;;;;;;;;;5056533;28;20214;-60
2023/11/20 02:51:51;;;;;;;29.40;4.88;;;;;;;;;;5059230;28;20048;-60
2023/11/20 02:54:17;;;;;;;19.13;4.30;;;;;;;;;;5045757;28;20067;-60
2023/11/20 02:56:43;;;;;;;20.25;4.50;;;;;;;;;;5051516;28;20075;-61
2023/11/20 02:59:09;;;;;;;15.63;3.80;;;;;;;;;;5048681;28;20516;-61
2023/11/20 03:01:36;;;;;;;12.35;4.32;;;;;;;;;;5048637;28;20441;-60
2023/11/20 03:04:02;;;;;;;14.20;3.75;;;;;;;;;;5050388;28;20049;-60
2023/11/20 03:06:28;;;;;;;15.52;4.07;;;;;;;;;;5056745;28;20037;-61
2023/11/20 03:08:54;;;;;;;32.67;5.40;;;;;;;;;;5059528;28;20053;-61
2023/11/20 03:11:20;;;;;;;27.50;5.70;;;;;;;;;;5053773;28;20032;-61
2023/11/20 03:13:46;;;;;;;27.77;7.20;;;;;;;;;;5049891;28;20089;-61
2023/11/20 03:16:13;;;;;;;35.83;7.55;;;;;;;;;;5056158;28;20051;-61
2023/11/20 03:18:39;;;;;;;33.08;9.27;;;;;;;;;;5058659;28;20041;-61
2023/11/20 03:21:06;;;;;;;38.00;8.05;;;;;;;;;;5052725;28;20040;-60
2023/11/20 03:23:32;;;;;;;34.65;8.07;;;;;;;;;;5035342;28;20052;-60
2023/11/20 03:25:58;;;;;;;49.40;9.57;;;;;;;;;;5035774;28;20080;-61
2023/11/20 03:28:24;;;;;;;42.47;7.90;;;;;;;;;;5049233;28;20112;-61
2023/11/20 03:30:51;;;;;;;35.38;8.13;;;;;;;;;;5051791;28;20400;-61
2023/11/20 03:33:18;;;;;;;51.90;8.65;;;;;;;;;;5049215;28;20049;-61
2023/11/20 03:35:44;;;;;;;49.30;8.80;;;;;;;;;;5043071;28;20040;-61
2023/11/20 03:38:10;;;;;;;55.33;8.02;;;;;;;;;;5028354;28;20060;-61
2023/11/20 03:40:37;;;;;;;28.25;7.97;;;;;;;;;;5057240;28;20095;-61
2023/11/20 03:43:03;;;;;;;40.55;7.30;;;;;;;;;;5059916;28;20092;-60
2023/11/20 03:45:29;;;;;;;31.75;6.07;;;;;;;;;;5054492;28;20045;-60
2023/11/20 03:47:55;;;;;;;27.42;6.85;;;;;;;;;;5049791;28;20110;-60
2023/11/20 03:50:21;;;;;;;35.92;6.88;;;;;;;;;;5054482;28;20456;-60
2023/11/20 03:52:47;;;;;;;27.98;6.72;;;;;;;;;;5054183;28;20117;-61
2023/11/20 03:55:15;;;;;;;38.22;7.10;;;;;;;;;;5059400;28;20044;-61
2023/11/20 03:57:42;;;;;;;32.50;7.05;;;;;;;;;;5062079;28;20452;-61
2023/11/20 04:00:08;;;;;;;28.88;7.10;;;;;;;;;;5040279;28;20049;-61
2023/11/20 04:02:36;;;;;;;23.52;6.82;;;;;;;;;;5047905;28;20033;-61
2023/11/20 04:05:02;;;;;;;30.13;6.10;;;;;;;;;;5055927;28;20053;-61
2023/11/20 04:07:28;;;;;;;21.52;6.25;;;;;;;;;;5066862;28;20085;-61
2023/11/20 04:09:55;;;;;;;20.42;5.03;;;;;;;;;;5061057;28;20144;-61
2023/11/20 04:12:21;;;;;;;19.88;5.05;;;;;;;;;;5071517;28;20037;-60
2023/11/20 04:14:48;;;;;;;22.90;6.05;;;;;;;;;;5067973;28;20402;-61
2023/11/20 04:17:14;;;;;;;25.05;6.32;;;;;;;;;;5054964;28;20108;-61
2023/11/20 04:19:40;;;;;;;21.73;5.45;;;;;;;;;;5061242;28;20058;-60
2023/11/20 04:22:07;;;;;;;28.13;5.70;;;;;;;;;;5073486;28;20090;-61
2023/11/20 04:24:33;;;;;;;22.05;6.03;;;;;;;;;;5065463;28;20040;-61
2023/11/20 04:27:00;;;;;;;25.20;6.03;;;;;;;;;;5062633;28;20493;-60
2023/11/20 04:29:26;;;;;;;25.73;6.35;;;;;;;;;;5054344;28;20409;-60
2023/11/20 04:31:52;;;;;;;23.77;6.38;;;;;;;;;;5050829;28;20048;-61
2023/11/20 04:34:19;;;;;;;20.80;5.78;;;;;;;;;;5054179;28;20439;-60
2023/11/20 04:36:45;;;;;;;18.45;6.10;;;;;;;;;;5052312;28;20096;-60
2023/11/20 04:39:11;;;;;;;29.60;6.88;;;;;;;;;;5067148;28;20146;-61
2023/11/20 04:41:39;;;;;;;22.85;5.85;;;;;;;;;;5073111;28;20054;-61
2023/11/20 04:44:05;;;;;;;18.30;5.10;;;;;;;;;;5058666;28;20124;-61
2023/11/20 04:46:34;;;;;;;23.42;4.88;;;;;;;;;;5062341;28;20060;-60
2023/11/20 04:49:00;;;;;;;12.90;3.83;;;;;;;;;;5073026;28;20051;-61
2023/11/20 04:51:26;;;;;;;13.60;3.45;;;;;;;;;;5072251;28;20086;-60
2023/11/20 04:53:52;;;;;;;11.00;3.92;;;;;;;;;;5065861;28;20051;-61
2023/11/20 04:56:19;;;;;;;9.25;3.47;;;;;;;;;;5066792;28;20048;-60
2023/11/20 04:58:45;;;;;;;10.32;3.08;;;;;;;;;;5052211;28;20041;-60
2023/11/20 05:01:13;;;;;;;12.55;3.47;;;;;;;;;;5065939;28;20059;-61
2023/11/20 05:03:39;;;;;;;7.50;2.47;;;;;;;;;;5069140;28;20122;-60
2023/11/20 05:06:10;;;;;;;8.05;2.25;;;;;;;;;;5062405;28;20045;-61
2023/11/20 05:08:37;;;;;;;7.40;1.92;;;;;;;;;;5067557;28;20115;-60
2023/11/20 05:11:03;;;;;;;4.95;1.77;;;;;;;;;;5061970;28;20033;-60
2023/11/20 05:13:29;;;;;;;7.95;1.83;;;;;;;;;;5054301;28;20137;-60
2023/11/20 05:15:55;;;;;;;6.25;2.00;;;;;;;;;;5059328;28;20046;-60
2023/11/20 05:18:22;;;;;;;6.60;1.83;;;;;;;;;;5072413;28;20116;-61
2023/11/20 05:20:48;;;;;;;3.88;1.48;;;;;;;;;;5068269;28;20032;-60
2023/11/20 05:23:14;;;;;;;5.07;1.65;;;;;;;;;;5068414;28;20118;-61
2023/11/20 05:25:41;;;;;;;6.93;1.88;;;;;;;;;;5064481;28;20056;-60
2023/11/20 05:28:07;;;;;;;6.60;1.80;;;;;;;;;;5059675;28;20458;-61
2023/11/20 05:30:33;;;;;;;12.68;2.05;;;;;;;;;;5066865;28;20053;-61
2023/11/20 05:33:00;;;;;;;5.30;1.65;;;;;;;;;;5065306;28;20056;-61
2023/11/20 05:35:27;;;;;;;10.10;2.25;;;;;;;;;;5066156;28;20055;-60
2023/11/20 05:37:53;;;;;;;10.10;2.45;;;;;;;;;;5072177;28;20067;-60
2023/11/20 05:40:19;;;;;;;12.57;3.00;;;;;;;;;;5066453;28;20056;-60
2023/11/20 05:42:45;;;;;;;8.30;3.00;;;;;;;;;;5070224;28;20119;-60
2023/11/20 05:45:11;;;;;;;9.73;2.67;;;;;;;;;;5064257;28;20036;-61
2023/11/20 05:47:38;;;;;;;13.63;2.80;;;;;;;;;;5059390;28;20056;-60
2023/11/20 05:50:04;;;;;;;10.80;2.85;;;;;;;;;;5071777;28;20414;-61
2023/11/20 05:52:32;;;;;;;9.23;2.65;;;;;;;;;;5071647;28;20040;-60
2023/11/20 05:54:59;;;;;;;9.68;2.72;;;;;;;;;;5052759;28;20084;-61
2023/11/20 05:57:27;;;;;;;9.85;2.65;;;;;;;;;;5051368;28;20049;-61
2023/11/20 05:59:53;;;;;;;12.50;2.92;;;;;;;;;;5070597;28;20044;-61
2023/11/20 06:02:19;;;;;;;13.00;2.90;;;;;;;;;;5053823;28;20057;-60
2023/11/20 06:04:45;;;;;;;13.40;2.58;;;;;;;;;;5055874;28;20079;-61
2023/11/20 06:07:13;;;;;;;13.93;3.38;;;;;;;;;;5071474;28;20429;-60
2023/11/20 06:09:41;;;;;;;10.85;2.70;;;;;;;;;;5058442;28;20061;-60
2023/11/20 06:12:07;;;;;;;12.00;3.47;;;;;;;;;;5051262;28;20118;-61
2023/11/20 06:14:33;;;;;;;15.60;3.42;;;;;;;;;;5059347;28;20123;-60
2023/11/20 06:17:00;;;;;;;12.20;3.00;;;;;;;;;;5066574;28;20480;-60
2023/11/20 06:19:27;;;;;;;13.95;3.03;;;;;;;;;;5069137;28;20048;-60
2023/11/20 06:21:54;;;;;;;11.35;3.08;;;;;;;;;;5070606;28;20044;-60
2023/11/20 06:24:21;;;;;;;9.07;2.50;;;;;;;;;;5068863;28;20404;-60
2023/11/20 06:26:47;;;;;;;10.85;3.08;;;;;;;;;;5071097;28;20561;-60
2023/11/20 06:29:13;;;;;;;11.27;2.78;;;;;;;;;;5053847;28;20048;-60
2023/11/20 06:31:40;;;;;;;9.82;2.97;;;;;;;;;;5060953;28;20130;-60
2023/11/20 06:34:06;;;;;;;15.20;2.95;;;;;;;;;;5067144;28;20107;-60
2023/11/20 06:36:32;;;;;;;13.13;2.70;;;;;;;;;;5070055;28;20485;-61
2023/11/20 06:38:59;;;;;;;14.75;3.72;;;;;;;;;;5070814;28;20040;-61
2023/11/20 06:41:26;;;;;;;12.60;2.88;;;;;;;;;;5070863;28;20119;-60
2023/11/20 06:43:53;;;;;;;15.57;2.88;;;;;;;;;;5059396;28;20052;-60
2023/11/20 06:46:21;;;;;;;9.45;2.67;;;;;;;;;;5054164;28;20045;-60
2023/11/20 06:48:47;;;;;;;14.90;3.08;;;;;;;;;;5070780;28;20056;-61
2023/11/20 06:51:13;;;;;;;10.07;2.50;;;;;;;;;;5069915;28;20106;-60
2023/11/20 06:53:40;;;;;;;14.45;2.90;;;;;;;;;;5061531;28;20396;-60
2023/11/20 06:56:06;;;;;;;13.45;2.72;;;;;;;;;;5058995;28;20064;-60
2023/11/20 06:58:35;;;;;;;11.57;2.83;;;;;;;;;;5067282;28;20566;-60
2023/11/20 07:01:03;;;;;;;8.18;2.72;;;;;;;;;;5067047;28;20466;-60
2023/11/20 07:03:29;;;;;;;15.60;5.50;;;;;;;;;;5063089;28;20090;-60
2023/11/20 07:05:55;;;;;;;11.88;3.47;;;;;;;;;;5050271;28;20045;-60
2023/11/20 07:08:24;;;;;;;9.35;2.60;;;;;;;;;;5068120;28;20041;-60
2023/11/20 07:10:51;;;;;;;10.00;2.70;;;;;;;;;;5058347;28;20378;-60
2023/11/20 07:13:17;;;;;;;10.63;2.90;;;;;;;;;;5057911;28;20120;-60
2023/11/20 07:15:43;;;;;;;16.52;4.60;;;;;;;;;;5050753;28;20402;-60
2023/11/20 07:18:09;;;;;;;10.50;2.72;;;;;;;;;;5048555;28;20048;-60
2023/11/20 07:20:36;;;;;;;12.15;3.08;;;;;;;;;;5054024;28;20045;-60
2023/11/20 07:23:05;;;;;;;11.15;2.97;;;;;;;;;;5054680;28;20045;-61
2023/11/20 07:25:33;;;;;;;12.13;3.03;;;;;;;;;;5031457;28;20167;-61
2023/11/20 07:28:04;;;;;;;10.93;3.28;;;;;;;;;;5047716;28;20037;-61
2023/11/20 07:30:34;;;;;;;12.18;3.25;;;;;;;;;;5047617;28;20061;-61
2023/11/20 07:33:00;;;;;;;10.48;2.58;;;;;;;;;;5045839;28;20049;-61
2023/11/20 07:35:27;;;;;;;17.45;3.75;;;;;;;;;;5050107;28;20099;-60
2023/11/20 07:37:53;;;;;;;23.75;4.18;;;;;;;;;;5052470;28;20059;-61
2023/11/20 07:40:21;;;;;;;22.20;4.57;;;;;;;;;;5046151;28;20091;-61
2023/11/20 07:42:47;;;;;;;20.10;3.88;;;;;;;;;;5049095;28;20049;-61
2023/11/20 07:45:13;;;;;;;27.52;4.57;;;;;;;;;;5049229;28;20041;-61
2023/11/20 07:47:40;;;;;;;35.13;5.28;;;;;;;;;;5049374;28;20040;-61
2023/11/20 07:50:07;;;;;;;20.92;4.28;;;;;;;;;;5048458;28;20047;-61
2023/11/20 07:52:34;;;;;;;31.80;5.63;;;;;;;;;;5047999;28;20346;-60
2023/11/20 07:55:00;;;;;;;27.23;4.78;;;;;;;;;;5048698;28;20064;-61
2023/11/20 07:57:26;;;;;;;26.73;5.38;;;;;;;;;;5048015;28;20465;-60
2023/11/20 07:59:53;;;;;;;27.08;4.60;;;;;;;;;;5046056;28;20045;-61
2023/11/20 08:02:20;;;;;;;32.60;5.28;;;;;;;;;;5047951;28;20083;-60
2023/11/20 08:04:47;;;;;;;34.58;5.35;;;;;;;;;;5046648;28;20064;-60
2023/11/20 08:07:13;;;;;;;33.53;5.70;;;;;;;;;;5048998;28;20040;-61
2023/11/20 08:09:40;;;;;;;22.55;4.55;;;;;;;;;;5048049;28;20127;-61
2023/11/20 08:12:06;;;;;;;28.20;4.00;;;;;;;;;;5056338;28;20032;-60
2023/11/20 08:14:34;;;;;;;41.10;6.25;;;;;;;;;;5060253;28;20128;-60
2023/11/20 08:17:01;;;;;;;30.00;5.25;;;;;;;;;;5063690;28;20036;-60
2023/11/20 08:19:27;;;;;;;29.70;4.97;;;;;;;;;;5053529;28;20174;-61
2023/11/20 08:21:53;;;;;;;35.08;4.97;;;;;;;;;;5064318;28;20036;-60
2023/11/20 08:24:19;;;;;;;31.80;5.03;;;;;;;;;;5057866;28;20033;-60
2023/11/20 08:26:46;;;;;;;29.08;4.68;;;;;;;;;;5073324;28;20561;-60
2023/11/20 08:29:16;;;;;;;36.72;4.60;;;;;;;;;;5055920;28;20063;-60
2023/11/20 08:31:47;;;;;;;34.05;4.65;;;;;;;;;;5067446;28;20056;-60
2023/11/20 08:34:13;;;;;;;38.83;5.28;;;;;;;;;;5052405;28;20045;-60
2023/11/20 08:36:40;;;;;;;29.45;5.50;;;;;;;;;;5055902;28;20036;-60
2023/11/20 08:39:11;;;;;;;29.20;5.35;;;;;;;;;;5050696;28;20048;-60
2023/11/20 08:41:40;;;;;;;36.53;4.65;;;;;;;;;;5052588;28;20118;-75
2023/11/20 08:44:07;;;;;;;27.35;4.72;;;;;;;;;;5033683;28;20049;-60
2023/11/20 08:46:34;;;;;;;43.83;6.70;;;;;;;;;;5057932;28;20056;-61
2023/11/20 08:49:00;;;;;;;31.13;4.45;;;;;;;;;;5063024;28;20067;-60
2023/11/20 08:51:27;;;;;;;36.35;4.65;;;;;;;;;;5066101;28;20048;-60
2023/11/20 08:53:53;;;;;;;30.77;5.30;;;;;;;;;;5054875;28;20558;-60
2023/11/20 08:56:19;;;;;;;28.13;4.53;;;;;;;;;;5070897;28;20040;-60
2023/11/20 08:58:47;;;;;;;29.83;4.97;;;;;;;;;;5071714;28;20036;-60
2023/11/20 09:01:13;;;;;;;37.88;4.55;;;;;;;;;;5054578;28;20123;-60
2023/11/20 09:03:39;;;;;;;31.98;4.28;;;;;;;;;;5064307;28;20064;-60
2023/11/20 09:06:06;;;;;;;30.92;4.50;;;;;;;;;;5066997;28;20036;-60
2023/11/20 09:08:32;;;;;;;25.95;3.80;;;;;;;;;;5055467;28;20033;-60
2023/11/20 09:10:58;;;;;;;24.05;3.97;;;;;;;;;;5060448;28;20126;-61
2023/11/20 09:13:24;;;;;;;31.50;4.38;;;;;;;;;;5067465;28;20151;-62
2023/11/20 09:15:50;;;;;;;30.58;5.18;;;;;;;;;;5062061;28;20076;-61
2023/11/20 09:18:17;;;;;;;28.05;3.92;;;;;;;;;;5071825;28;20076;-61
2023/11/20 09:20:43;;;;;;;26.15;3.80;;;;;;;;;;5072263;28;20077;-61
2023/11/20 09:23:09;;;;;;;20.95;3.78;;;;;;;;;;5060992;28;20097;-61
2023/11/20 09:25:35;;;;;;;21.98;3.80;;;;;;;;;;5053141;28;20047;-62
2023/11/20 09:28:01;;;;;;;29.75;3.50;;;;;;;;;;5025767;28;20044;-61
2023/11/20 09:30:30;;;;;;;24.42;3.65;;;;;;;;;;5054434;28;20053;-61
2023/11/20 09:32:57;;;;;;;17.45;3.28;;;;;;;;;;5057892;28;20068;-61
2023/11/20 09:35:24;;;;;;;25.08;3.83;;;;;;;;;;5065525;28;20051;-61
2023/11/20 09:37:51;;;;;;;21.13;3.10;;;;;;;;;;5068331;28;20454;-61
2023/11/20 09:40:17;;;;;;;23.42;3.55;;;;;;;;;;5071153;28;20108;-61
2023/11/20 09:42:45;;;;;;;15.02;3.88;;;;;;;;;;5048216;28;20101;-61
2023/11/20 09:45:37;;;;;;;21.33;3.22;;;;;;;;;;5061542;28;20036;-61
2023/11/20 09:48:04;;;;;;;26.00;3.67;;;;;;;;;;5067525;28;20063;-61
2023/11/20 09:50:30;;;;;;;23.02;2.90;;;;;;;;;;5071772;28;20439;-61
2023/11/20 09:52:56;;;;;;;27.55;3.63;;;;;;;;;;5070520;28;20309;-61
2023/11/20 09:55:22;;;;;;;26.85;4.10;;;;;;;;;;5061337;28;20037;-61
2023/11/20 09:57:50;;;;;;;26.17;3.38;;;;;;;;;;5071256;28;20100;-61
2023/11/20 10:00:17;;;;;;;24.27;3.58;;;;;;;;;;5060999;28;20081;-61
2023/11/20 10:02:47;;;;;;;25.27;4.00;;;;;;;;;;5066125;28;20055;-61
2023/11/20 10:05:19;;;;;;;26.90;4.18;;;;;;;;;;5053427;28;20488;-61
2023/11/20 10:07:46;;;;;;;17.10;4.40;;;;;;;;;;5070681;28;20522;-61
2023/11/20 10:10:12;;;;;;;25.08;4.90;;;;;;;;;;5056552;28;20465;-61
2023/11/20 10:12:40;;;;;;;23.73;4.35;;;;;;;;;;5062798;28;20044;-61
2023/11/20 10:15:09;;;;;;;28.65;4.82;;;;;;;;;;5060070;28;20056;-61
2023/11/20 10:17:36;;;;;;;34.80;4.50;;;;;;;;;;5062724;28;20067;-61
2023/11/20 10:20:09;;;;;;;32.38;5.35;;;;;;;;;;5066969;28;20120;-61
2023/11/20 10:22:35;;;;;;;29.45;5.68;;;;;;;;;;5035051;28;20053;-62
2023/11/20 10:25:06;;;;;;;31.30;3.92;;;;;;;;;;5061891;28;20115;-69
2023/11/20 10:27:32;;;;;;;29.65;5.07;;;;;;;;;;5022937;28;20036;-61
2023/11/20 10:29:58;;;;;;;29.77;4.68;;;;;;;;;;5059687;28;20075;-61
2023/11/20 10:32:28;;;;;;;33.72;5.43;;;;;;;;;;5061505;28;20404;-61
2023/11/20 10:35:17;;;;;;;28.95;4.95;;;;;;;;;;5062596;28;20045;-61
2023/11/20 10:37:53;;;;;;;32.95;4.00;;;;;;;;;;5070795;28;20477;-61
2023/11/20 10:40:19;;;;;;;25.80;4.32;;;;;;;;;;5057529;28;20041;-61
2023/11/20 10:42:46;;;;;;;26.83;3.33;;;;;;;;;;5067704;28;20090;-61
2023/11/20 10:45:12;;;;;;;22.40;4.25;;;;;;;;;;5066249;28;20048;-61
2023/11/20 10:47:38;;;;;;;26.42;3.78;;;;;;;;;;5067612;28;20040;-61
2023/11/20 10:50:05;;;;;;;22.90;3.88;;;;;;;;;;5057269;28;20048;-61
2023/11/20 10:52:31;;;;;;;29.38;4.25;;;;;;;;;;5065315;28;20098;-61
2023/11/20 10:55:01;;;;;;;25.15;3.33;;;;;;;;;;5052835;28;20106;-60
2023/11/20 10:57:28;;;;;;;27.63;4.53;;;;;;;;;;5057091;28;20052;-61
2023/11/20 10:59:56;;;;;;;32.90;4.57;;;;;;;;;;5058526;28;20489;-61
2023/11/20 11:02:25;;;;;;;39.83;5.50;;;;;;;;;;5052635;28;20047;-61
2023/11/20 11:04:52;;;;;;;29.77;4.03;;;;;;;;;;5052956;28;20089;-61
2023/11/20 11:07:22;;;;;;;22.52;3.75;;;;;;;;;;5065459;28;20041;-61
2023/11/20 11:09:48;;;;;;;26.23;4.95;;;;;;;;;;5054399;28;20153;-61
2023/11/20 11:12:16;;;;;;;27.42;5.40;;;;;;;;;;5068754;28;20045;-61
2023/11/20 11:14:44;;;;;;;23.05;3.90;;;;;;;;;;5054866;28;20041;-61
2023/11/20 11:17:14;;;;;;;25.98;3.72;;;;;;;;;;5068071;28;20488;-61
2023/11/20 11:19:50;;;;;;;23.80;4.07;;;;;;;;;;5061360;28;20493;-61
2023/11/20 11:22:22;;;;;;;21.98;3.67;;;;;;;;;;5070480;28;20420;-61
2023/11/20 11:24:50;;;;;;;22.02;3.67;;;;;;;;;;5045959;28;20049;-61
2023/11/20 11:27:18;;;;;;;18.90;3.45;;;;;;;;;;5064337;28;20067;-61
2023/11/20 11:29:47;;;;;;;25.88;5.95;;;;;;;;;;5070208;28;20507;-61
2023/11/20 11:32:32;;;;;;;22.13;3.63;;;;;;;;;;5068278;28;20091;-61
2023/11/20 11:35:30;;;;;;;24.13;3.67;;;;;;;;;;5050584;28;20385;-61
2023/11/20 11:38:20;;;;;;;22.98;4.13;;;;;;;;;;5026169;28;20060;-61
2023/11/20 11:40:49;;;;;;;16.05;2.78;;;;;;;;;;5027811;28;20383;-61
2023/11/20 11:43:35;;;;;;;23.75;4.80;;;;;;;;;;5043231;28;20049;-62
2023/11/20 11:46:03;;;;;;;22.75;3.40;;;;;;;;;;5036259;28;20053;-60
2023/11/20 11:48:36;;;;;;;18.48;3.47;;;;;;;;;;5066824;28;20059;-68
2023/11/20 11:51:03;;;;;;;17.83;3.60;;;;;;;;;;5029905;28;20067;-61
2023/11/20 11:53:29;;;;;;;21.90;3.60;;;;;;;;;;5057679;28;20098;-61
2023/11/20 11:55:59;;;;;;;22.35;3.92;;;;;;;;;;5042610;28;20417;-61
2023/11/20 11:58:27;;;;;;;22.67;3.95;;;;;;;;;;5053866;28;20384;-61
2023/11/20 12:01:12;;;;;;;29.52;4.90;;;;;;;;;;5063496;28;20716;-61
2023/11/20 12:03:39;;;;;;;26.70;4.38;;;;;;;;;;5050611;28;20409;-61
2023/11/20 12:06:05;;;;;;;24.95;4.10;;;;;;;;;;5073635;28;20044;-61
2023/11/20 12:08:34;;;;;;;23.05;4.13;;;;;;;;;;5069768;28;20037;-61
2023/11/20 12:11:00;;;;;;;19.45;3.78;;;;;;;;;;5058085;28;20179;-61
2023/11/20 12:13:27;;;;;;;25.27;3.72;;;;;;;;;;5054583;28;20430;-61
2023/11/20 12:15:56;;;;;;;19.50;3.17;;;;;;;;;;5057882;28;20055;-61
2023/11/20 12:18:24;;;;;;;15.55;2.97;;;;;;;;;;5059004;28;20551;-61
2023/11/20 12:20:51;;;;;;;22.60;4.22;;;;;;;;;;5030137;28;20044;-61
2023/11/20 12:23:19;;;;;;;26.67;4.72;;;;;;;;;;5049195;28;20051;-61
2023/11/20 12:25:45;;;;;;;24.88;4.63;;;;;;;;;;5053325;28;20041;-61
2023/11/20 12:28:12;;;;;;;26.15;5.05;;;;;;;;;;5036120;28;20106;-61
2023/11/20 12:30:39;;;;;;;23.00;3.92;;;;;;;;;;5052964;28;20119;-61
2023/11/20 12:33:07;;;;;;;26.75;4.15;;;;;;;;;;5050144;28;20439;-62
2023/11/20 12:35:33;;;;;;;25.10;4.22;;;;;;;;;;5045845;28;20485;-61
2023/11/20 12:38:07;;;;;;;24.63;3.67;;;;;;;;;;5045672;28;20095;-61
2023/11/20 12:40:33;;;;;;;25.75;4.10;;;;;;;;;;5055567;28;20040;-61
2023/11/20 12:43:00;;;;;;;24.85;3.92;;;;;;;;;;5053138;28;20041;-61
2023/11/20 12:45:26;;;;;;;25.25;3.90;;;;;;;;;;5056328;28;20064;-61
2023/11/20 12:47:53;;;;;;;29.48;5.80;;;;;;;;;;5051812;28;20132;-61
2023/11/20 12:50:20;;;;;;;22.45;4.10;;;;;;;;;;5051941;28;20516;-61
2023/11/20 12:52:47;;;;;;;20.58;5.05;;;;;;;;;;5052657;28;20231;-61
2023/11/20 12:55:14;;;;;;;22.27;3.40;;;;;;;;;;5027940;28;20123;-61
2023/11/20 12:57:42;;;;;;;33.50;5.07;;;;;;;;;;5047594;28;20049;-61
2023/11/20 13:00:10;;;;;;;25.20;4.47;;;;;;;;;;5052404;28;20144;-61
2023/11/20 13:02:39;;;;;;;23.48;4.78;;;;;;;;;;5049133;28;20179;-61
2023/11/20 13:05:11;;;;;;;23.90;4.20;;;;;;;;;;5044530;28;20405;-61
2023/11/20 13:07:38;;;;;;;26.80;4.95;;;;;;;;;;5044263;28;20485;-61
2023/11/20 13:10:08;;;;;;;24.05;3.95;;;;;;;;;;5049387;28;20059;-61
2023/11/20 13:12:35;;;;;;;29.65;5.40;;;;;;;;;;5054754;28;20487;-61
2023/11/20 13:15:04;;;;;;;26.58;4.35;;;;;;;;;;5061287;28;20044;-61
2023/11/20 13:17:31;;;;;;;24.83;4.47;;;;;;;;;;5048696;28;20080;-61
2023/11/20 13:19:57;;;;;;;28.67;4.80;;;;;;;;;;5061039;28;20060;-61
2023/11/20 13:22:23;;;;;;;22.92;4.63;;;;;;;;;;5072314;28;20089;-61
2023/11/20 13:24:51;;;;;;;27.50;4.85;;;;;;;;;;5068506;28;20044;-61
2023/11/20 13:27:18;;;;;;;35.83;4.80;;;;;;;;;;5052363;28;20075;-61
2023/11/20 13:30:05;;;;;;;24.27;4.15;;;;;;;;;;5072275;28;20090;-61
2023/11/20 13:32:34;;;;;;;27.83;5.35;;;;;;;;;;5039663;28;20048;-61
2023/11/20 13:35:00;;;;;;;36.42;4.82;;;;;;;;;;5030990;28;20046;-61
2023/11/20 13:37:27;;;;;;;25.95;4.82;;;;;;;;;;5033384;28;20071;-61
2023/11/20 13:39:53;;;;;;;32.63;5.35;;;;;;;;;;5042968;28;20076;-61
2023/11/20 13:42:19;;;;;;;27.92;4.85;;;;;;;;;;5046772;28;20045;-61
2023/11/20 13:44:45;;;;;;;28.77;4.45;;;;;;;;;;5033442;28;20059;-61
2023/11/20 13:47:11;;;;;;;34.65;5.10;;;;;;;;;;5044239;28;20495;-61
2023/11/20 13:49:37;;;;;;;32.95;5.07;;;;;;;;;;5035435;28;20067;-61
2023/11/20 13:52:04;;;;;;;25.63;5.22;;;;;;;;;;5034168;28;20041;-61
2023/11/20 13:54:30;;;;;;;34.10;5.32;;;;;;;;;;5033297;28;20052;-61
2023/11/20 13:56:56;;;;;;;30.00;4.63;;;;;;;;;;5029483;28;20417;-61
2023/11/20 13:59:24;;;;;;;37.30;4.97;;;;;;;;;;5028893;28;20104;-61
2023/11/20 14:01:50;;;;;;;26.25;4.82;;;;;;;;;;5040464;28;20123;-61
2023/11/20 14:04:19;;;;;;;21.00;3.85;;;;;;;;;;5051509;28;20500;-61
2023/11/20 14:06:45;;;;;;;27.45;5.35;;;;;;;;;;5050385;28;20128;-61
2023/11/20 14:09:11;;;;;;;25.55;4.88;;;;;;;;;;5036743;28;20075;-61
2023/11/20 14:11:38;;;;;;;34.90;6.70;;;;;;;;;;5045438;28;20434;-61
2023/11/20 14:14:05;;;;;;;28.10;4.82;;;;;;;;;;5021581;28;20053;-61
2023/11/20 14:16:31;;;;;;;34.53;6.65;;;;;;;;;;5050782;28;20556;-61
2023/11/20 14:18:57;;;;;;;27.42;4.45;;;;;;;;;;5047380;28;20172;-61
2023/11/20 14:21:24;;;;;;;30.15;4.95;;;;;;;;;;5015900;28;20555;-61
2023/11/20 14:23:50;;;;;;;28.83;5.28;;;;;;;;;;5034903;28;20041;-61
2023/11/20 14:26:19;;;;;;;27.80;4.90;;;;;;;;;;5051109;28;20045;-61
2023/11/20 14:28:45;;;;;;;22.75;4.00;;;;;;;;;;5050527;28;20401;-61
2023/11/20 14:31:12;;;;;;;30.70;5.25;;;;;;;;;;5060810;28;20041;-61